Terminal Aerodrome Forecast
Issued by NWS Pittsburgh, PA

Current Version | Previous Version | Graphics & Text | Print | Product List | Glossary On
Versions: 1 2 3 4 5 6 7 8 9 10 11 12 13 14 15 16 17 18 19 20 21 22 23 24 25 26 27 28 29 30 31 32 33 34 35 36 37 38 39 40
000
FTUS41 KPBZ 291042 AAC
TAFPIT
TAF AMD
KPIT 291042Z 2911/3012 29003KT 1/4SM FG VV001
     FM291130 29003KT 1SM BR SCT001 BKN040
     FM291200 00000KT 3SM BR SCT040
     FM291500 26004KT P6SM BKN040
     FM291700 28005KT P6SM BKN050=

USA.gov is the U.S. government's official web portal to all federal, state and local government web resources and services.